sensor_id;sensor_type;location;lat;lon;timestamp;temperature;humidity
1413;DHT22;701;52.526;13.408;2023-05-16T00:01:52;15.00;28.40
1413;DHT22;701;52.526;13.408;2023-05-16T00:04:19;15.00;28.30
1413;DHT22;701;52.526;13.408;2023-05-16T00:06:45;15.00;28.20
1413;DHT22;701;52.526;13.408;2023-05-16T00:09:11;15.00;27.90
1413;DHT22;701;52.526;13.408;2023-05-16T00:11:37;15.00;27.80
1413;DHT22;701;52.526;13.408;2023-05-16T00:14:03;15.10;27.50
1413;DHT22;701;52.526;13.408;2023-05-16T00:16:29;15.10;27.50
1413;DHT22;701;52.526;13.408;2023-05-16T00:18:55;15.10;27.50
1413;DHT22;701;52.526;13.408;2023-05-16T00:21:25;15.10;27.50
1413;DHT22;701;52.526;13.408;2023-05-16T00:23:51;15.10;27.50
1413;DHT22;701;52.526;13.408;2023-05-16T00:26:17;15.10;27.50
1413;DHT22;701;52.526;13.408;2023-05-16T00:28:43;15.10;27.50
1413;DHT22;701;52.526;13.408;2023-05-16T00:31:09;15.10;27.50
1413;DHT22;701;52.526;13.408;2023-05-16T00:33:35;15.10;27.50
1413;DHT22;701;52.526;13.408;2023-05-16T00:36:01;15.10;27.50
1413;DHT22;701;52.526;13.408;2023-05-16T00:38:27;15.10;27.50
1413;DHT22;701;52.526;13.408;2023-05-16T00:40:52;15.10;27.50
1413;DHT22;701;52.526;13.408;2023-05-16T00:43:18;15.10;27.50
1413;DHT22;701;52.526;13.408;2023-05-16T00:45:44;15.10;27.50
1413;DHT22;701;52.526;13.408;2023-05-16T00:48:14;15.00;27.70
1413;DHT22;701;52.526;13.408;2023-05-16T00:50:40;15.00;27.80
1413;DHT22;701;52.526;13.408;2023-05-16T00:53:06;15.00;27.90
1413;DHT22;701;52.526;13.408;2023-05-16T00:55:32;15.00;27.80
1413;DHT22;701;52.526;13.408;2023-05-16T00:58:00;15.00;28.00
1413;DHT22;701;52.526;13.408;2023-05-16T01:00:26;15.00;28.10
1413;DHT22;701;52.526;13.408;2023-05-16T01:02:52;14.90;28.30
1413;DHT22;701;52.526;13.408;2023-05-16T01:05:19;14.90;28.40
1413;DHT22;701;52.526;13.408;2023-05-16T01:07:45;14.90;28.60
1413;DHT22;701;52.526;13.408;2023-05-16T01:10:11;14.80;28.80
1413;DHT22;701;52.526;13.408;2023-05-16T01:15:58;14.70;29.50
1413;DHT22;701;52.526;13.408;2023-05-16T01:18:36;14.60;29.60
1413;DHT22;701;52.526;13.408;2023-05-16T01:21:14;14.60;30.30
1413;DHT22;701;52.526;13.408;2023-05-16T01:26:21;14.50;30.60
1413;DHT22;701;52.526;13.408;2023-05-16T01:28:49;14.50;30.60
1413;DHT22;701;52.526;13.408;2023-05-16T01:31:18;14.50;30.60
1413;DHT22;701;52.526;13.408;2023-05-16T01:33:44;14.50;30.60
1413;DHT22;701;52.526;13.408;2023-05-16T01:36:16;14.50;30.60
1413;DHT22;701;52.526;13.408;2023-05-16T01:44:06;14.40;30.50
1413;DHT22;701;52.526;13.408;2023-05-16T01:46:36;14.40;30.60
1413;DHT22;701;52.526;13.408;2023-05-16T01:49:30;14.40;31.20
1413;DHT22;701;52.526;13.408;2023-05-16T01:52:07;14.30;30.10
1413;DHT22;701;52.526;13.408;2023-05-16T01:54:37;14.30;30.00
1413;DHT22;701;52.526;13.408;2023-05-16T01:57:05;14.30;29.80
1413;DHT22;701;52.526;13.408;2023-05-16T01:59:33;14.30;29.60
1413;DHT22;701;52.526;13.408;2023-05-16T02:01:59;14.30;29.50
1413;DHT22;701;52.526;13.408;2023-05-16T02:04:25;14.30;29.30
1413;DHT22;701;52.526;13.408;2023-05-16T02:06:51;14.30;29.20
1413;DHT22;701;52.526;13.408;2023-05-16T02:09:17;14.20;28.90
1413;DHT22;701;52.526;13.408;2023-05-16T02:11:43;14.20;28.80
1413;DHT22;701;52.526;13.408;2023-05-16T02:14:08;14.20;28.70
1413;DHT22;701;52.526;13.408;2023-05-16T02:16:35;14.10;28.50
1413;DHT22;701;52.526;13.408;2023-05-16T02:19:01;14.10;28.40
1413;DHT22;701;52.526;13.408;2023-05-16T02:21:26;14.10;28.30
1413;DHT22;701;52.526;13.408;2023-05-16T02:23:52;14.10;28.20
1413;DHT22;701;52.526;13.408;2023-05-16T02:26:18;14.00;27.80
1413;DHT22;701;52.526;13.408;2023-05-16T02:28:44;14.00;27.50
1413;DHT22;701;52.526;13.408;2023-05-16T02:31:10;13.90;27.40
1413;DHT22;701;52.526;13.408;2023-05-16T02:33:36;13.90;27.40
1413;DHT22;701;52.526;13.408;2023-05-16T02:36:01;13.80;27.30
1413;DHT22;701;52.526;13.408;2023-05-16T02:38:28;13.90;27.20
1413;DHT22;701;52.526;13.408;2023-05-16T02:40:54;13.90;27.10
1413;DHT22;701;52.526;13.408;2023-05-16T02:43:20;13.80;26.80
1413;DHT22;701;52.526;13.408;2023-05-16T02:45:46;13.80;26.70
1413;DHT22;701;52.526;13.408;2023-05-16T02:48:12;13.80;26.60
1413;DHT22;701;52.526;13.408;2023-05-16T02:50:37;13.80;26.60
1413;DHT22;701;52.526;13.408;2023-05-16T02:53:04;13.70;26.50
1413;DHT22;701;52.526;13.408;2023-05-16T02:55:30;13.70;26.60
1413;DHT22;701;52.526;13.408;2023-05-16T02:57:56;13.70;26.50
1413;DHT22;701;52.526;13.408;2023-05-16T03:00:23;13.70;26.70
1413;DHT22;701;52.526;13.408;2023-05-16T03:02:48;13.60;26.70
1413;DHT22;701;52.526;13.408;2023-05-16T03:05:14;13.70;26.70
1413;DHT22;701;52.526;13.408;2023-05-16T03:07:40;13.70;26.90
1413;DHT22;701;52.526;13.408;2023-05-16T03:10:06;13.60;26.90
1413;DHT22;701;52.526;13.408;2023-05-16T03:12:32;13.60;26.90
1413;DHT22;701;52.526;13.408;2023-05-16T03:14:58;13.60;26.90
1413;DHT22;701;52.526;13.408;2023-05-16T03:17:23;13.60;27.00
1413;DHT22;701;52.526;13.408;2023-05-16T03:19:50;13.60;27.00
1413;DHT22;701;52.526;13.408;2023-05-16T03:22:16;13.60;26.90
1413;DHT22;701;52.526;13.408;2023-05-16T03:24:41;13.70;26.80
1413;DHT22;701;52.526;13.408;2023-05-16T03:27:10;13.60;26.70
1413;DHT22;701;52.526;13.408;2023-05-16T03:29:36;13.60;26.70
1413;DHT22;701;52.526;13.408;2023-05-16T03:32:02;13.60;26.80
1413;DHT22;701;52.526;13.408;2023-05-16T03:34:28;13.60;26.80
1413;DHT22;701;52.526;13.408;2023-05-16T03:36:54;13.60;26.80
1413;DHT22;701;52.526;13.408;2023-05-16T03:39:20;13.50;26.90
1413;DHT22;701;52.526;13.408;2023-05-16T03:41:45;13.50;27.00
1413;DHT22;701;52.526;13.408;2023-05-16T03:44:11;13.50;26.90
1413;DHT22;701;52.526;13.408;2023-05-16T03:46:37;13.50;27.00
1413;DHT22;701;52.526;13.408;2023-05-16T03:49:03;13.50;27.00
1413;DHT22;701;52.526;13.408;2023-05-16T03:51:28;13.50;27.00
1413;DHT22;701;52.526;13.408;2023-05-16T03:53:55;13.50;27.00
1413;DHT22;701;52.526;13.408;2023-05-16T03:56:20;13.50;26.90
1413;DHT22;701;52.526;13.408;2023-05-16T03:58:47;13.50;27.40
1413;DHT22;701;52.526;13.408;2023-05-16T04:01:13;13.40;27.00
1413;DHT22;701;52.526;13.408;2023-05-16T04:03:39;13.40;27.10
1413;DHT22;701;52.526;13.408;2023-05-16T04:06:05;13.40;27.20
1413;DHT22;701;52.526;13.408;2023-05-16T04:08:31;13.40;27.30
1413;DHT22;701;52.526;13.408;2023-05-16T04:10:57;13.40;27.20
1413;DHT22;701;52.526;13.408;2023-05-16T04:13:23;13.40;27.20
1413;DHT22;701;52.526;13.408;2023-05-16T04:15:49;13.40;27.10
1413;DHT22;701;52.526;13.408;2023-05-16T04:18:15;13.50;27.00
1413;DHT22;701;52.526;13.408;2023-05-16T04:20:42;13.50;26.90
1413;DHT22;701;52.526;13.408;2023-05-16T04:23:08;13.50;26.80
1413;DHT22;701;52.526;13.408;2023-05-16T04:25:36;13.50;26.80
1413;DHT22;701;52.526;13.408;2023-05-16T04:28:02;13.50;26.60
1413;DHT22;701;52.526;13.408;2023-05-16T04:30:28;13.50;26.60
1413;DHT22;701;52.526;13.408;2023-05-16T04:32:53;13.50;26.40
1413;DHT22;701;52.526;13.408;2023-05-16T04:35:19;13.50;26.50
1413;DHT22;701;52.526;13.408;2023-05-16T04:37:47;13.50;26.50
1413;DHT22;701;52.526;13.408;2023-05-16T04:40:12;13.50;26.40
1413;DHT22;701;52.526;13.408;2023-05-16T04:42:39;13.50;26.40
1413;DHT22;701;52.526;13.408;2023-05-16T04:45:05;13.50;26.40
1413;DHT22;701;52.526;13.408;2023-05-16T04:47:36;13.50;26.40
1413;DHT22;701;52.526;13.408;2023-05-16T04:50:03;13.50;26.40
1413;DHT22;701;52.526;13.408;2023-05-16T04:52:29;13.50;26.30
1413;DHT22;701;52.526;13.408;2023-05-16T04:54:54;13.50;26.30
1413;DHT22;701;52.526;13.408;2023-05-16T04:57:20;13.50;26.10
1413;DHT22;701;52.526;13.408;2023-05-16T04:59:46;13.50;26.00
1413;DHT22;701;52.526;13.408;2023-05-16T05:02:12;13.40;26.00
1413;DHT22;701;52.526;13.408;2023-05-16T05:04:37;13.40;26.20
1413;DHT22;701;52.526;13.408;2023-05-16T05:07:03;13.40;26.10
1413;DHT22;701;52.526;13.408;2023-05-16T05:09:29;13.40;26.30
1413;DHT22;701;52.526;13.408;2023-05-16T05:11:55;13.30;26.30
1413;DHT22;701;52.526;13.408;2023-05-16T05:14:20;13.20;26.20
1413;DHT22;701;52.526;13.408;2023-05-16T05:16:46;13.20;26.20
1413;DHT22;701;52.526;13.408;2023-05-16T05:19:12;13.20;26.20
1413;DHT22;701;52.526;13.408;2023-05-16T05:21:38;13.20;26.20
1413;DHT22;701;52.526;13.408;2023-05-16T05:24:03;13.20;26.20
1413;DHT22;701;52.526;13.408;2023-05-16T05:26:29;13.20;26.20
1413;DHT22;701;52.526;13.408;2023-05-16T05:28:55;13.30;26.20
1413;DHT22;701;52.526;13.408;2023-05-16T05:31:21;13.30;26.20
1413;DHT22;701;52.526;13.408;2023-05-16T05:33:47;13.30;26.30
1413;DHT22;701;52.526;13.408;2023-05-16T05:36:12;13.30;26.40
1413;DHT22;701;52.526;13.408;2023-05-16T05:38:38;13.40;25.70
1413;DHT22;701;52.526;13.408;2023-05-16T05:41:04;13.40;25.50
1413;DHT22;701;52.526;13.408;2023-05-16T05:43:31;13.40;25.20
1413;DHT22;701;52.526;13.408;2023-05-16T05:45:58;13.40;25.20
1413;DHT22;701;52.526;13.408;2023-05-16T05:48:24;13.40;25.20
1413;DHT22;701;52.526;13.408;2023-05-16T05:50:50;13.50;25.80
1413;DHT22;701;52.526;13.408;2023-05-16T05:53:17;13.50;25.10
1413;DHT22;701;52.526;13.408;2023-05-16T05:55:43;13.50;25.00
1413;DHT22;701;52.526;13.408;2023-05-16T05:58:09;13.50;24.90
1413;DHT22;701;52.526;13.408;2023-05-16T06:00:34;13.50;24.90
1413;DHT22;701;52.526;13.408;2023-05-16T06:03:00;13.50;24.70
1413;DHT22;701;52.526;13.408;2023-05-16T06:05:26;13.60;24.40
1413;DHT22;701;52.526;13.408;2023-05-16T06:07:52;13.60;24.00
1413;DHT22;701;52.526;13.408;2023-05-16T06:10:17;13.60;23.50
1413;DHT22;701;52.526;13.408;2023-05-16T06:12:43;13.60;23.00
1413;DHT22;701;52.526;13.408;2023-05-16T06:15:09;13.70;23.00
1413;DHT22;701;52.526;13.408;2023-05-16T06:17:35;13.70;23.00
1413;DHT22;701;52.526;13.408;2023-05-16T06:20:01;13.70;22.40
1413;DHT22;701;52.526;13.408;2023-05-16T06:22:27;13.80;22.10
1413;DHT22;701;52.526;13.408;2023-05-16T06:24:53;13.80;21.90
1413;DHT22;701;52.526;13.408;2023-05-16T06:27:19;13.90;21.70
1413;DHT22;701;52.526;13.408;2023-05-16T06:29:45;13.90;21.60
1413;DHT22;701;52.526;13.408;2023-05-16T06:32:11;14.00;21.30
1413;DHT22;701;52.526;13.408;2023-05-16T06:34:37;14.20;21.00
1413;DHT22;701;52.526;13.408;2023-05-16T06:37:03;14.30;20.70
1413;DHT22;701;52.526;13.408;2023-05-16T06:39:29;14.30;20.20
1413;DHT22;701;52.526;13.408;2023-05-16T06:41:55;14.40;20.30
1413;DHT22;701;52.526;13.408;2023-05-16T06:44:22;14.40;19.80
1413;DHT22;701;52.526;13.408;2023-05-16T06:46:47;14.50;19.90
1413;DHT22;701;52.526;13.408;2023-05-16T06:49:13;14.50;19.80
1413;DHT22;701;52.526;13.408;2023-05-16T06:51:39;14.60;19.60
1413;DHT22;701;52.526;13.408;2023-05-16T06:54:05;14.60;18.90
1413;DHT22;701;52.526;13.408;2023-05-16T06:56:31;14.60;19.40
1413;DHT22;701;52.526;13.408;2023-05-16T06:58:57;14.60;18.90
1413;DHT22;701;52.526;13.408;2023-05-16T07:01:23;14.60;18.80
1413;DHT22;701;52.526;13.408;2023-05-16T07:03:49;14.60;18.60
1413;DHT22;701;52.526;13.408;2023-05-16T07:06:14;14.60;18.60
1413;DHT22;701;52.526;13.408;2023-05-16T07:08:40;14.60;18.60
1413;DHT22;701;52.526;13.408;2023-05-16T07:11:06;14.60;18.70
1413;DHT22;701;52.526;13.408;2023-05-16T07:13:32;14.50;18.70
1413;DHT22;701;52.526;13.408;2023-05-16T07:15:58;14.60;18.70
1413;DHT22;701;52.526;13.408;2023-05-16T07:18:23;14.70;18.70
1413;DHT22;701;52.526;13.408;2023-05-16T07:20:49;14.80;18.50
1413;DHT22;701;52.526;13.408;2023-05-16T07:23:15;14.80;18.20
1413;DHT22;701;52.526;13.408;2023-05-16T07:25:41;14.90;18.00
1413;DHT22;701;52.526;13.408;2023-05-16T07:28:07;14.90;18.00
1413;DHT22;701;52.526;13.408;2023-05-16T07:30:33;15.10;17.80
1413;DHT22;701;52.526;13.408;2023-05-16T07:32:59;15.20;17.60
1413;DHT22;701;52.526;13.408;2023-05-16T07:35:25;15.30;17.20
1413;DHT22;701;52.526;13.408;2023-05-16T07:37:51;15.40;16.80
1413;DHT22;701;52.526;13.408;2023-05-16T07:40:17;15.40;16.80
1413;DHT22;701;52.526;13.408;2023-05-16T07:42:43;15.50;16.20
1413;DHT22;701;52.526;13.408;2023-05-16T07:45:09;15.70;15.80
1413;DHT22;701;52.526;13.408;2023-05-16T07:47:35;15.90;15.10
1413;DHT22;701;52.526;13.408;2023-05-16T07:50:01;16.00;14.80
1413;DHT22;701;52.526;13.408;2023-05-16T07:52:26;16.00;14.30
1413;DHT22;701;52.526;13.408;2023-05-16T07:54:53;16.00;14.30
1413;DHT22;701;52.526;13.408;2023-05-16T07:57:19;15.90;13.80
1413;DHT22;701;52.526;13.408;2023-05-16T07:59:45;15.80;14.10
1413;DHT22;701;52.526;13.408;2023-05-16T08:02:11;15.80;14.30
1413;DHT22;701;52.526;13.408;2023-05-16T08:04:37;15.80;14.40
1413;DHT22;701;52.526;13.408;2023-05-16T08:07:03;15.80;14.20
1413;DHT22;701;52.526;13.408;2023-05-16T08:09:28;15.80;14.20
1413;DHT22;701;52.526;13.408;2023-05-16T08:11:54;15.70;14.40
1413;DHT22;701;52.526;13.408;2023-05-16T08:14:20;15.80;14.40
1413;DHT22;701;52.526;13.408;2023-05-16T08:16:46;15.80;14.40
1413;DHT22;701;52.526;13.408;2023-05-16T08:19:12;15.80;14.20
1413;DHT22;701;52.526;13.408;2023-05-16T08:21:38;15.80;14.20
1413;DHT22;701;52.526;13.408;2023-05-16T08:24:04;15.70;14.20
1413;DHT22;701;52.526;13.408;2023-05-16T08:26:31;15.60;14.40
1413;DHT22;701;52.526;13.408;2023-05-16T08:28:57;15.60;14.40
1413;DHT22;701;52.526;13.408;2023-05-16T08:31:23;15.50;14.30
1413;DHT22;701;52.526;13.408;2023-05-16T08:33:48;15.40;14.40
1413;DHT22;701;52.526;13.408;2023-05-16T08:36:14;15.30;14.50
1413;DHT22;701;52.526;13.408;2023-05-16T08:38:40;15.30;14.70
1413;DHT22;701;52.526;13.408;2023-05-16T08:41:06;15.20;14.80
1413;DHT22;701;52.526;13.408;2023-05-16T08:43:32;15.10;14.80
1413;DHT22;701;52.526;13.408;2023-05-16T08:45:59;15.10;14.90
1413;DHT22;701;52.526;13.408;2023-05-16T08:48:27;15.10;15.10
1413;DHT22;701;52.526;13.408;2023-05-16T08:50:53;15.10;15.10
1413;DHT22;701;52.526;13.408;2023-05-16T08:53:21;15.20;15.00
1413;DHT22;701;52.526;13.408;2023-05-16T08:55:52;15.20;14.70
1413;DHT22;701;52.526;13.408;2023-05-16T08:58:18;15.20;14.70
1413;DHT22;701;52.526;13.408;2023-05-16T09:00:45;15.20;14.40
1413;DHT22;701;52.526;13.408;2023-05-16T09:03:11;15.20;14.50
1413;DHT22;701;52.526;13.408;2023-05-16T09:05:37;15.30;14.50
1413;DHT22;701;52.526;13.408;2023-05-16T09:08:03;15.30;14.40
1413;DHT22;701;52.526;13.408;2023-05-16T09:10:29;15.40;14.20
1413;DHT22;701;52.526;13.408;2023-05-16T09:12:55;15.60;14.00
1413;DHT22;701;52.526;13.408;2023-05-16T09:15:20;15.70;13.20
1413;DHT22;701;52.526;13.408;2023-05-16T09:17:47;15.80;13.30
1413;DHT22;701;52.526;13.408;2023-05-16T09:20:18;15.80;13.40
1413;DHT22;701;52.526;13.408;2023-05-16T09:25:20;16.00;12.90
1413;DHT22;701;52.526;13.408;2023-05-16T09:27:46;16.10;12.80
1413;DHT22;701;52.526;13.408;2023-05-16T09:30:16;16.20;12.60
1413;DHT22;701;52.526;13.408;2023-05-16T09:32:45;16.20;12.10
1413;DHT22;701;52.526;13.408;2023-05-16T09:35:15;16.20;12.30
1413;DHT22;701;52.526;13.408;2023-05-16T09:37:45;16.10;12.10
1413;DHT22;701;52.526;13.408;2023-05-16T09:40:12;16.10;12.10
1413;DHT22;701;52.526;13.408;2023-05-16T09:42:38;16.10;11.70
1413;DHT22;701;52.526;13.408;2023-05-16T09:45:04;16.20;11.60
1413;DHT22;701;52.526;13.408;2023-05-16T09:47:30;16.40;11.20
1413;DHT22;701;52.526;13.408;2023-05-16T09:49:56;16.70;10.60
1413;DHT22;701;52.526;13.408;2023-05-16T09:52:25;16.70;9.90
1413;DHT22;701;52.526;13.408;2023-05-16T09:54:51;16.70;9.60
1413;DHT22;701;52.526;13.408;2023-05-16T09:57:22;16.60;10.00
1413;DHT22;701;52.526;13.408;2023-05-16T09:59:48;16.60;9.80
1413;DHT22;701;52.526;13.408;2023-05-16T10:02:14;16.50;10.00
1413;DHT22;701;52.526;13.408;2023-05-16T10:04:41;16.50;10.00
1413;DHT22;701;52.526;13.408;2023-05-16T10:07:07;16.40;10.00
1413;DHT22;701;52.526;13.408;2023-05-16T10:09:35;16.30;10.20
1413;DHT22;701;52.526;13.408;2023-05-16T10:12:03;16.20;10.60
1413;DHT22;701;52.526;13.408;2023-05-16T10:14:35;16.10;10.90
1413;DHT22;701;52.526;13.408;2023-05-16T10:17:06;16.10;11.10
1413;DHT22;701;52.526;13.408;2023-05-16T10:19:36;16.10;11.30
1413;DHT22;701;52.526;13.408;2023-05-16T10:22:06;16.10;11.40
1413;DHT22;701;52.526;13.408;2023-05-16T10:24:40;16.10;11.40
1413;DHT22;701;52.526;13.408;2023-05-16T10:27:08;16.20;11.50
1413;DHT22;701;52.526;13.408;2023-05-16T10:29:37;16.20;11.40
1413;DHT22;701;52.526;13.408;2023-05-16T10:32:04;16.20;11.20
1413;DHT22;701;52.526;13.408;2023-05-16T10:34:31;16.30;11.30
1413;DHT22;701;52.526;13.408;2023-05-16T10:36:58;16.50;11.30
1413;DHT22;701;52.526;13.408;2023-05-16T10:39:24;16.80;11.00
1413;DHT22;701;52.526;13.408;2023-05-16T10:41:50;17.10;10.40
1413;DHT22;701;52.526;13.408;2023-05-16T10:44:16;17.40;10.20
1413;DHT22;701;52.526;13.408;2023-05-16T10:46:43;17.60;9.60
1413;DHT22;701;52.526;13.408;2023-05-16T10:49:26;17.60;9.40
1413;DHT22;701;52.526;13.408;2023-05-16T10:52:07;17.50;9.20
1413;DHT22;701;52.526;13.408;2023-05-16T10:54:37;17.20;9.60
1413;DHT22;701;52.526;13.408;2023-05-16T10:57:25;17.00;10.30
1413;DHT22;701;52.526;13.408;2023-05-16T10:59:52;16.80;10.20
1413;DHT22;701;52.526;13.408;2023-05-16T11:04:48;16.20;10.00
1413;DHT22;701;52.526;13.408;2023-05-16T11:07:20;16.00;10.30
1413;DHT22;701;52.526;13.408;2023-05-16T11:12:47;15.80;10.30
1413;DHT22;701;52.526;13.408;2023-05-16T11:15:19;16.00;10.20
1413;DHT22;701;52.526;13.408;2023-05-16T11:17:45;16.30;9.90
1413;DHT22;701;52.526;13.408;2023-05-16T11:20:30;16.60;9.10
1413;DHT22;701;52.526;13.408;2023-05-16T11:25:57;16.90;7.60
1413;DHT22;701;52.526;13.408;2023-05-16T11:28:24;17.10;7.70
1413;DHT22;701;52.526;13.408;2023-05-16T11:30:53;17.20;7.60
1413;DHT22;701;52.526;13.408;2023-05-16T11:33:21;17.30;7.30
1413;DHT22;701;52.526;13.408;2023-05-16T11:36:07;17.20;7.00
1413;DHT22;701;52.526;13.408;2023-05-16T11:38:34;17.10;6.50
1413;DHT22;701;52.526;13.408;2023-05-16T11:41:07;17.00;6.50
1413;DHT22;701;52.526;13.408;2023-05-16T11:43:41;16.90;6.40
1413;DHT22;701;52.526;13.408;2023-05-16T11:46:11;17.10;6.60
1413;DHT22;701;52.526;13.408;2023-05-16T11:48:37;17.30;6.10
1413;DHT22;701;52.526;13.408;2023-05-16T11:51:03;17.70;5.70
1413;DHT22;701;52.526;13.408;2023-05-16T11:53:29;18.10;5.20
1413;DHT22;701;52.526;13.408;2023-05-16T11:55:55;18.50;4.30
1413;DHT22;701;52.526;13.408;2023-05-16T11:58:21;18.90;3.20
1413;DHT22;701;52.526;13.408;2023-05-16T12:00:50;19.20;2.90
1413;DHT22;701;52.526;13.408;2023-05-16T12:03:18;19.30;2.40
1413;DHT22;701;52.526;13.408;2023-05-16T12:05:53;19.30;2.40
1413;DHT22;701;52.526;13.408;2023-05-16T12:08:20;19.30;1.90
1413;DHT22;701;52.526;13.408;2023-05-16T12:10:51;19.10;2.50
1413;DHT22;701;52.526;13.408;2023-05-16T12:13:22;18.90;2.60
1413;DHT22;701;52.526;13.408;2023-05-16T12:15:49;18.60;2.90
1413;DHT22;701;52.526;13.408;2023-05-16T12:18:16;18.60;3.60
1413;DHT22;701;52.526;13.408;2023-05-16T12:20:43;18.70;3.70
1413;DHT22;701;52.526;13.408;2023-05-16T12:23:13;18.70;3.00
1413;DHT22;701;52.526;13.408;2023-05-16T12:25:43;18.90;2.80
1413;DHT22;701;52.526;13.408;2023-05-16T12:28:12;19.00;2.70
1413;DHT22;701;52.526;13.408;2023-05-16T12:30:43;19.10;1.90
1413;DHT22;701;52.526;13.408;2023-05-16T12:33:13;19.20;1.90
1413;DHT22;701;52.526;13.408;2023-05-16T12:35:42;19.30;2.00
1413;DHT22;701;52.526;13.408;2023-05-16T12:38:12;19.40;1.40
1413;DHT22;701;52.526;13.408;2023-05-16T12:40:40;19.50;1.30
1413;DHT22;701;52.526;13.408;2023-05-16T12:45:39;19.70;1.00
1413;DHT22;701;52.526;13.408;2023-05-16T12:48:12;19.90;1.00
1413;DHT22;701;52.526;13.408;2023-05-16T12:50:39;20.10;1.00
1413;DHT22;701;52.526;13.408;2023-05-16T12:53:10;20.30;1.00
1413;DHT22;701;52.526;13.408;2023-05-16T12:55:40;20.50;1.00
1413;DHT22;701;52.526;13.408;2023-05-16T13:01:35;20.60;1.00
1413;DHT22;701;52.526;13.408;2023-05-16T13:04:01;20.70;1.00
1413;DHT22;701;52.526;13.408;2023-05-16T13:06:27;20.80;1.00
1413;DHT22;701;52.526;13.408;2023-05-16T13:08:53;20.90;1.00
1413;DHT22;701;52.526;13.408;2023-05-16T13:11:20;21.10;1.00
1413;DHT22;701;52.526;13.408;2023-05-16T13:13:46;21.20;1.00
1413;DHT22;701;52.526;13.408;2023-05-16T13:16:12;21.20;1.00
1413;DHT22;701;52.526;13.408;2023-05-16T13:18:38;21.20;1.00
1413;DHT22;701;52.526;13.408;2023-05-16T13:21:04;21.10;1.00
1413;DHT22;701;52.526;13.408;2023-05-16T13:23:30;21.00;1.00
1413;DHT22;701;52.526;13.408;2023-05-16T13:25:56;21.00;1.00
1413;DHT22;701;52.526;13.408;2023-05-16T13:28:21;20.90;1.00
1413;DHT22;701;52.526;13.408;2023-05-16T13:30:47;20.90;1.00
1413;DHT22;701;52.526;13.408;2023-05-16T13:33:13;21.00;1.00
1413;DHT22;701;52.526;13.408;2023-05-16T13:35:39;21.10;1.00
1413;DHT22;701;52.526;13.408;2023-05-16T13:38:05;21.20;1.00
1413;DHT22;701;52.526;13.408;2023-05-16T13:40:30;21.40;1.00
1413;DHT22;701;52.526;13.408;2023-05-16T13:42:56;21.40;1.00
1413;DHT22;701;52.526;13.408;2023-05-16T13:45:22;21.40;1.00
1413;DHT22;701;52.526;13.408;2023-05-16T13:47:48;21.40;1.00
1413;DHT22;701;52.526;13.408;2023-05-16T13:50:14;21.30;1.00
1413;DHT22;701;52.526;13.408;2023-05-16T13:52:39;21.40;1.00
1413;DHT22;701;52.526;13.408;2023-05-16T13:55:06;21.50;1.00
1413;DHT22;701;52.526;13.408;2023-05-16T13:57:32;21.50;1.00
1413;DHT22;701;52.526;13.408;2023-05-16T13:59:58;21.30;1.00
1413;DHT22;701;52.526;13.408;2023-05-16T14:02:24;21.10;1.00
1413;DHT22;701;52.526;13.408;2023-05-16T14:04:53;20.90;1.00
1413;DHT22;701;52.526;13.408;2023-05-16T14:07:19;20.90;1.00
1413;DHT22;701;52.526;13.408;2023-05-16T14:09:45;20.90;1.00
1413;DHT22;701;52.526;13.408;2023-05-16T14:12:10;20.80;1.00
1413;DHT22;701;52.526;13.408;2023-05-16T14:14:36;20.60;1.00
1413;DHT22;701;52.526;13.408;2023-05-16T14:17:02;20.40;1.00
1413;DHT22;701;52.526;13.408;2023-05-16T14:19:31;20.30;1.00
1413;DHT22;701;52.526;13.408;2023-05-16T14:21:57;20.20;1.00
1413;DHT22;701;52.526;13.408;2023-05-16T14:24:23;20.20;1.00
1413;DHT22;701;52.526;13.408;2023-05-16T14:26:48;20.20;1.00
1413;DHT22;701;52.526;13.408;2023-05-16T14:29:14;20.30;1.00
1413;DHT22;701;52.526;13.408;2023-05-16T14:31:40;20.40;1.00
1413;DHT22;701;52.526;13.408;2023-05-16T14:34:06;20.30;1.00
1413;DHT22;701;52.526;13.408;2023-05-16T14:36:32;20.30;1.00
1413;DHT22;701;52.526;13.408;2023-05-16T14:38:58;20.10;1.00
1413;DHT22;701;52.526;13.408;2023-05-16T14:41:24;20.00;1.00
1413;DHT22;701;52.526;13.408;2023-05-16T14:43:50;20.10;1.00
1413;DHT22;701;52.526;13.408;2023-05-16T14:46:16;20.40;1.00
1413;DHT22;701;52.526;13.408;2023-05-16T14:48:42;20.50;1.00
1413;DHT22;701;52.526;13.408;2023-05-16T14:51:07;20.60;1.00
1413;DHT22;701;52.526;13.408;2023-05-16T14:53:36;20.50;1.00
1413;DHT22;701;52.526;13.408;2023-05-16T14:56:02;20.40;1.00
1413;DHT22;701;52.526;13.408;2023-05-16T14:58:29;20.30;1.00
1413;DHT22;701;52.526;13.408;2023-05-16T15:00:55;20.20;1.00
1413;DHT22;701;52.526;13.408;2023-05-16T15:03:21;20.20;1.00
1413;DHT22;701;52.526;13.408;2023-05-16T15:05:47;20.10;1.00
1413;DHT22;701;52.526;13.408;2023-05-16T15:08:13;20.10;1.00
1413;DHT22;701;52.526;13.408;2023-05-16T15:10:38;19.90;1.00
1413;DHT22;701;52.526;13.408;2023-05-16T15:13:04;19.90;1.00
1413;DHT22;701;52.526;13.408;2023-05-16T15:15:31;20.00;1.00
1413;DHT22;701;52.526;13.408;2023-05-16T15:17:57;20.20;1.00
1413;DHT22;701;52.526;13.408;2023-05-16T15:20:23;20.20;1.00
1413;DHT22;701;52.526;13.408;2023-05-16T15:22:50;20.20;1.00
1413;DHT22;701;52.526;13.408;2023-05-16T15:25:16;20.00;1.00
1413;DHT22;701;52.526;13.408;2023-05-16T15:27:42;19.80;1.00
1413;DHT22;701;52.526;13.408;2023-05-16T15:30:08;19.60;1.00
1413;DHT22;701;52.526;13.408;2023-05-16T15:32:35;19.50;1.00
1413;DHT22;701;52.526;13.408;2023-05-16T15:35:00;19.50;1.00
1413;DHT22;701;52.526;13.408;2023-05-16T15:37:26;19.30;1.00
1413;DHT22;701;52.526;13.408;2023-05-16T15:39:52;19.20;1.00
1413;DHT22;701;52.526;13.408;2023-05-16T15:42:18;19.20;1.00
1413;DHT22;701;52.526;13.408;2023-05-16T15:44:44;19.20;1.00
1413;DHT22;701;52.526;13.408;2023-05-16T15:47:10;19.30;1.00
1413;DHT22;701;52.526;13.408;2023-05-16T15:49:36;19.40;1.00
1413;DHT22;701;52.526;13.408;2023-05-16T15:52:02;19.50;1.00
1413;DHT22;701;52.526;13.408;2023-05-16T15:54:28;19.50;1.00
1413;DHT22;701;52.526;13.408;2023-05-16T15:56:54;19.50;1.00
1413;DHT22;701;52.526;13.408;2023-05-16T15:59:20;19.40;1.00
1413;DHT22;701;52.526;13.408;2023-05-16T16:01:45;19.40;1.00
1413;DHT22;701;52.526;13.408;2023-05-16T16:04:11;19.30;1.00
1413;DHT22;701;52.526;13.408;2023-05-16T16:06:37;19.20;1.00
1413;DHT22;701;52.526;13.408;2023-05-16T16:09:03;19.20;1.00
1413;DHT22;701;52.526;13.408;2023-05-16T16:11:29;19.20;1.00
1413;DHT22;701;52.526;13.408;2023-05-16T16:13:55;19.20;1.00
1413;DHT22;701;52.526;13.408;2023-05-16T16:16:21;19.10;1.00
1413;DHT22;701;52.526;13.408;2023-05-16T16:18:46;19.10;1.00
1413;DHT22;701;52.526;13.408;2023-05-16T16:21:12;19.20;1.00
1413;DHT22;701;52.526;13.408;2023-05-16T16:23:38;19.30;1.00
1413;DHT22;701;52.526;13.408;2023-05-16T16:26:04;19.30;1.00
1413;DHT22;701;52.526;13.408;2023-05-16T16:28:33;19.40;1.00
1413;DHT22;701;52.526;13.408;2023-05-16T16:30:58;19.40;1.00
1413;DHT22;701;52.526;13.408;2023-05-16T16:33:24;19.30;1.00